createdAt,value
2023-03-12T00:04:09.695Z,4.75
2023-03-12T00:09:11.552Z,5.40
2023-03-12T00:14:13.416Z,4.50
2023-03-12T00:19:15.178Z,4.72
2023-03-12T00:24:17.012Z,4.50
2023-03-12T00:29:18.787Z,5.50
2023-03-12T00:34:20.546Z,4.53
2023-03-12T00:39:22.345Z,5.07
2023-03-12T00:44:24.092Z,5.20
2023-03-12T00:49:25.994Z,4.07
2023-03-12T00:54:27.886Z,5.07
2023-03-12T00:59:29.737Z,4.93
2023-03-12T01:04:31.613Z,4.03
2023-03-12T01:09:33.389Z,4.75
2023-03-12T01:14:35.201Z,4.15
2023-03-12T01:19:37.096Z,4.88
2023-03-12T01:24:39.260Z,4.95
2023-03-12T01:29:41.289Z,3.88
2023-03-12T01:34:43.638Z,4.07
2023-03-12T01:39:45.450Z,3.75
2023-03-12T01:45:01.813Z,3.10
2023-03-12T01:50:04.539Z,2.97
2023-03-12T01:55:14.845Z,2.78
2023-03-12T02:00:20.752Z,2.58
2023-03-12T02:05:30.809Z,2.67
2023-03-12T02:10:32.697Z,2.67
2023-03-12T02:15:36.508Z,2.70
2023-03-12T02:21:01.268Z,2.80
2023-03-12T02:26:05.688Z,2.70
2023-03-12T02:31:07.498Z,2.75
2023-03-12T02:36:10.034Z,2.90
2023-03-12T02:41:16.473Z,2.95
2023-03-12T02:46:18.498Z,2.75
2023-03-12T02:51:20.599Z,3.03
2023-03-12T02:56:25.654Z,2.83
2023-03-12T03:01:28.286Z,2.40
2023-03-12T03:06:31.037Z,3.03
2023-03-12T03:11:32.853Z,2.95
2023-03-12T03:16:35.068Z,2.50
2023-03-12T03:21:36.836Z,2.30
2023-03-12T03:26:38.784Z,3.08
2023-03-12T03:31:40.607Z,2.45
2023-03-12T03:36:42.481Z,2.80
2023-03-12T03:41:46.481Z,3.13
2023-03-12T03:46:48.438Z,2.50
2023-03-12T03:51:51.831Z,2.30
2023-03-12T03:56:53.616Z,2.60
2023-03-12T04:01:56.016Z,2.15
2023-03-12T04:06:58.292Z,2.78
2023-03-12T04:12:00.092Z,2.42
2023-03-12T04:17:01.921Z,2.40
2023-03-12T04:22:04.261Z,2.42
2023-03-12T04:27:07.237Z,3.25
2023-03-12T04:32:09.008Z,3.08
2023-03-12T04:37:16.767Z,2.55
2023-03-12T04:42:18.548Z,3.10
2023-03-12T04:47:20.291Z,3.33
2023-03-12T04:52:22.120Z,3.15
2023-03-12T04:57:23.870Z,2.70
2023-03-12T05:02:25.774Z,2.95
2023-03-12T05:07:27.538Z,3.22
2023-03-12T05:12:29.350Z,3.70
2023-03-12T05:17:31.093Z,3.08
2023-03-12T05:22:33.125Z,2.85
2023-03-12T05:27:35.543Z,3.33
2023-03-12T05:32:38.127Z,3.42
2023-03-12T05:37:42.715Z,2.85
2023-03-12T05:42:44.491Z,4.28
2023-03-12T05:47:46.292Z,4.50
2023-03-12T05:52:48.057Z,3.80
2023-03-12T05:57:49.843Z,4.07
2023-03-12T06:02:51.583Z,3.78
2023-03-12T06:07:53.623Z,4.00
2023-03-12T06:12:55.886Z,5.35
2023-03-12T06:17:57.641Z,5.78
2023-03-12T06:22:59.415Z,4.75
2023-03-12T06:28:01.208Z,5.63
2023-03-12T06:33:04.728Z,6.07
2023-03-12T06:38:06.756Z,6.88
2023-03-12T06:43:12.207Z,7.00
2023-03-12T06:48:14.025Z,6.05
2023-03-12T06:53:16.115Z,6.40
2023-03-12T06:58:18.909Z,7.18
2023-03-12T07:03:21.522Z,7.82
2023-03-12T07:08:23.535Z,7.50
2023-03-12T07:13:25.288Z,6.57
2023-03-12T07:18:27.101Z,7.93
2023-03-12T07:23:28.864Z,7.10
2023-03-12T07:28:30.654Z,8.35
2023-03-12T07:33:33.288Z,6.88
2023-03-12T07:38:35.096Z,7.82
2023-03-12T07:43:36.911Z,7.57
2023-03-12T07:48:39.063Z,8.02
2023-03-12T07:53:40.830Z,7.63
2023-03-12T07:58:42.688Z,7.13
2023-03-12T08:03:45.546Z,7.32
2023-03-12T08:08:47.950Z,8.75
2023-03-12T08:13:49.961Z,8.82
2023-03-12T08:18:51.732Z,9.50
2023-03-12T08:23:53.528Z,9.65
2023-03-12T08:28:55.302Z,11.40
2023-03-12T08:33:57.090Z,10.82
2023-03-12T08:38:58.921Z,11.20
2023-03-12T08:44:00.947Z,12.27
2023-03-12T08:49:02.753Z,13.15
2023-03-12T08:54:05.654Z,11.18
2023-03-12T08:59:08.167Z,13.45
2023-03-12T09:04:10.211Z,12.50
2023-03-12T09:09:12.776Z,11.80
2023-03-12T09:14:57.537Z,10.93
2023-03-12T09:19:36.575Z,11.23
2023-03-12T09:24:38.411Z,10.88
2023-03-12T09:29:57.072Z,9.32
2023-03-12T09:40:07.672Z,8.13
2023-03-12T09:45:17.053Z,7.70
2023-03-12T09:50:24.848Z,7.95
2023-03-12T09:55:28.944Z,8.05
2023-03-12T10:00:35.004Z,7.05
2023-03-12T10:06:04.165Z,7.28
2023-03-12T10:11:13.864Z,6.10
2023-03-12T10:16:30.686Z,6.85
2023-03-12T10:21:38.312Z,6.82
2023-03-12T10:26:49.218Z,6.00
2023-03-12T10:32:00.738Z,5.43
2023-03-12T10:37:12.526Z,7.07
2023-03-12T10:42:20.580Z,7.13
2023-03-12T10:47:31.846Z,5.85
2023-03-12T10:52:33.644Z,7.50
2023-03-12T10:57:42.848Z,5.75
2023-03-12T11:02:48.442Z,6.50
2023-03-12T11:07:51.232Z,5.32
2023-03-12T11:13:21.187Z,6.93
2023-03-12T11:18:25.454Z,6.77
2023-03-12T11:23:30.591Z,5.47
2023-03-12T11:28:38.834Z,5.75
2023-03-12T11:33:41.165Z,6.28
2023-03-12T11:38:46.232Z,5.88
2023-03-12T11:43:56.889Z,7.03
2023-03-12T11:54:09.089Z,6.40
2023-03-12T11:59:13.704Z,3.22
2023-03-12T12:04:34.585Z,5.68
2023-03-12T12:10:01.118Z,5.78
2023-03-12T12:15:03.014Z,5.18
2023-03-12T12:20:34.777Z,5.45
2023-03-12T12:26:01.158Z,5.40
2023-03-12T12:31:02.878Z,6.18
2023-03-12T12:36:06.163Z,5.00
2023-03-12T12:41:37.955Z,5.32
2023-03-12T12:46:43.386Z,6.60
2023-03-12T12:51:50.598Z,5.60
2023-03-12T12:57:03.686Z,4.65
2023-03-12T13:02:15.498Z,5.13
2023-03-12T13:07:20.018Z,5.25
2023-03-12T13:12:44.622Z,4.38
2023-03-12T13:18:08.068Z,3.80
2023-03-12T13:23:26.286Z,4.63
2023-03-12T13:28:32.682Z,5.70
2023-03-12T13:33:46.484Z,4.30
2023-03-12T13:39:05.116Z,5.43
2023-03-12T13:44:33.132Z,4.95
2023-03-12T13:49:57.448Z,4.82
2023-03-12T13:55:11.198Z,4.03
2023-03-12T14:00:39.175Z,4.32
2023-03-12T14:06:07.463Z,4.80
2023-03-12T14:11:23.162Z,4.55
2023-03-12T14:16:49.634Z,3.33
2023-03-12T14:21:52.921Z,3.83
2023-03-12T14:26:56.973Z,4.25
2023-03-12T14:32:03.926Z,4.00
2023-03-12T14:37:37.193Z,3.97
2023-03-12T14:42:39.177Z,4.15
2023-03-12T14:47:41.736Z,4.57
2023-03-12T14:52:43.478Z,3.63
2023-03-12T14:57:46.173Z,3.72
2023-03-12T15:02:48.014Z,3.70
2023-03-12T15:07:51.761Z,3.38
2023-03-12T15:12:56.921Z,3.70
2023-03-12T15:17:59.479Z,3.97
2023-03-12T15:23:04.312Z,5.28
2023-03-12T15:28:27.661Z,5.30
2023-03-12T15:33:29.717Z,4.15
2023-03-12T15:38:34.388Z,4.32
2023-03-12T15:43:37.868Z,5.40
2023-03-12T15:48:41.328Z,4.03
2023-03-12T15:53:43.280Z,5.40
2023-03-12T15:58:45.189Z,4.00
2023-03-12T16:03:47.267Z,3.65
2023-03-12T16:09:03.528Z,4.50
2023-03-12T16:14:13.854Z,3.88
2023-03-12T16:19:18.674Z,3.85
2023-03-12T16:24:20.750Z,3.30
2023-03-12T16:29:26.251Z,4.30
2023-03-12T16:34:28.901Z,4.22
2023-03-12T16:39:33.226Z,3.42
2023-03-12T16:44:35.404Z,5.05
2023-03-12T16:49:37.279Z,4.15
2023-03-12T16:54:39.038Z,4.00
2023-03-12T16:59:41.108Z,4.20
2023-03-12T17:04:42.999Z,4.03
2023-03-12T17:09:47.732Z,4.22
2023-03-12T17:14:49.711Z,3.72
2023-03-12T17:19:52.176Z,4.30
2023-03-12T17:24:54.548Z,4.05
2023-03-12T17:29:56.463Z,4.53
2023-03-12T17:35:03.917Z,4.28
2023-03-12T17:40:09.882Z,4.20
2023-03-12T17:45:11.861Z,4.20
2023-03-12T17:50:14.631Z,4.55
2023-03-12T17:55:16.723Z,4.60
2023-03-12T18:00:21.482Z,4.40
2023-03-12T18:05:23.784Z,3.88
2023-03-12T18:10:25.549Z,4.60
2023-03-12T18:15:27.371Z,4.45
2023-03-12T18:20:38.711Z,3.28
2023-03-12T18:25:41.686Z,3.53
2023-03-12T18:30:47.900Z,3.63
2023-03-12T18:35:49.911Z,4.63
2023-03-12T18:40:51.717Z,4.30
2023-03-12T18:45:53.464Z,3.97
2023-03-12T18:50:55.605Z,4.03
2023-03-12T18:55:59.082Z,4.45
2023-03-12T19:01:02.184Z,4.45
2023-03-12T19:06:09.467Z,3.97
2023-03-12T19:11:13.909Z,3.80
2023-03-12T19:16:17.877Z,4.43
2023-03-12T19:21:19.842Z,3.78
2023-03-12T19:26:21.885Z,4.35
2023-03-12T19:31:24.606Z,4.07
2023-03-12T19:36:26.559Z,3.38
2023-03-12T19:41:28.359Z,3.65
2023-03-12T19:46:31.282Z,3.85
2023-03-12T19:51:33.266Z,4.20
2023-03-12T19:56:35.108Z,4.00
2023-03-12T20:01:38.100Z,4.00
2023-03-12T20:06:40.101Z,3.42
2023-03-12T20:11:42.176Z,4.15
2023-03-12T20:16:44.032Z,4.25
2023-03-12T20:21:48.155Z,4.28
2023-03-12T20:26:52.342Z,4.07
2023-03-12T20:31:54.339Z,3.95
2023-03-12T20:36:56.184Z,4.15
2023-03-12T20:41:57.979Z,3.92
2023-03-12T20:47:01.492Z,3.28
2023-03-12T20:52:03.526Z,3.28
2023-03-12T20:57:05.638Z,3.78
2023-03-12T21:02:12.552Z,3.72
2023-03-12T21:07:14.528Z,3.17
2023-03-12T21:12:16.354Z,3.20
2023-03-12T21:17:18.174Z,3.92
2023-03-12T21:22:20.093Z,3.25
2023-03-12T21:27:21.890Z,2.92
2023-03-12T21:32:25.129Z,3.10
2023-03-12T21:37:27.159Z,2.53
2023-03-12T21:42:29.404Z,2.95
2023-03-12T21:47:31.426Z,3.13
2023-03-12T21:52:41.279Z,3.15
2023-03-12T21:57:45.630Z,3.40
2023-03-12T22:02:47.703Z,2.25
2023-03-12T22:07:49.464Z,3.53
2023-03-12T22:12:51.323Z,3.00
2023-03-12T22:17:53.309Z,3.60
2023-03-12T22:22:55.354Z,3.10
2023-03-12T22:27:57.093Z,3.28
2023-03-12T22:32:58.896Z,2.75
2023-03-12T22:38:01.036Z,3.42
2023-03-12T22:43:03.155Z,3.80
2023-03-12T22:48:05.653Z,2.30
2023-03-12T22:53:07.751Z,2.72
2023-03-12T22:58:10.417Z,3.22
2023-03-12T23:03:12.380Z,2.80
2023-03-12T23:08:14.169Z,2.72
2023-03-12T23:13:16.104Z,4.00
2023-03-12T23:18:19.040Z,2.72
2023-03-12T23:23:20.784Z,3.13
2023-03-12T23:28:23.296Z,3.33
2023-03-12T23:33:26.445Z,2.95
2023-03-12T23:38:29.810Z,3.15
2023-03-12T23:43:31.945Z,3.42
2023-03-12T23:48:36.205Z,2.53
2023-03-12T23:53:39.468Z,4.18
2023-03-12T23:58:41.837Z,3.90
